Time;durP1;ratioP1;P1;durP2;ratioP2;P2;SDS_P1;SDS_P2;PMS_P1;PMS_P2;Temp;Humidity;BMP_temperature;BMP_pressure;BME280_temperature;BME280_humidity;BME280_pressure;Samples;Min_cycle;Max_cycle;Signal;HPM_P1;HPM_P2
2022/03/12 00:00:43;;;;;;;10.60;7.07;;;;;;;;;;4994842;28;20444;-76
2022/03/12 00:03:09;;;;;;;10.87;6.70;;;;;;;;;;4996692;28;20483;-75
2022/03/12 00:05:36;;;;;;;13.80;6.87;;;;;;;;;;4995237;28;20462;-75
2022/03/12 00:08:04;;;;;;;7.37;6.07;;;;;;;;;;4996924;28;20411;-77
2022/03/12 00:10:32;;;;;;;8.73;6.20;;;;;;;;;;4996298;28;20510;-77
2022/03/12 00:12:59;;;;;;;12.80;6.90;;;;;;;;;;4996318;28;20436;-77
2022/03/12 00:15:26;;;;;;;9.93;6.47;;;;;;;;;;4995953;28;20795;-77
2022/03/12 00:17:52;;;;;;;10.97;6.70;;;;;;;;;;4996197;28;20408;-77
2022/03/12 00:20:19;;;;;;;11.17;7.10;;;;;;;;;;4996382;28;20526;-76
2022/03/12 00:22:47;;;;;;;9.33;7.27;;;;;;;;;;4996669;28;20420;-77
2022/03/12 00:25:18;;;;;;;17.77;7.23;;;;;;;;;;4995909;28;20424;-78
2022/03/12 00:27:45;;;;;;;11.10;7.40;;;;;;;;;;4994917;28;20847;-76
2022/03/12 00:30:14;;;;;;;10.60;6.87;;;;;;;;;;4996239;28;20896;-76
2022/03/12 00:32:41;;;;;;;11.03;6.70;;;;;;;;;;4995849;28;20397;-76
2022/03/12 00:35:10;;;;;;;13.13;8.53;;;;;;;;;;4996759;28;20436;-76
2022/03/12 00:37:37;;;;;;;11.40;7.03;;;;;;;;;;4996153;28;20404;-77
2022/03/12 00:40:04;;;;;;;11.30;6.77;;;;;;;;;;4994629;28;20860;-77
2022/03/12 00:42:30;;;;;;;11.47;7.47;;;;;;;;;;4996569;28;20401;-77
2022/03/12 00:44:56;;;;;;;12.40;7.70;;;;;;;;;;4994483;28;20432;-77
2022/03/12 00:47:23;;;;;;;11.20;7.70;;;;;;;;;;4995846;28;20796;-77
2022/03/12 00:49:49;;;;;;;13.57;6.87;;;;;;;;;;4995627;28;20412;-77
2022/03/12 00:52:16;;;;;;;11.30;7.20;;;;;;;;;;4994060;28;20413;-77
2022/03/12 00:54:42;;;;;;;8.83;6.30;;;;;;;;;;4995428;28;20811;-77
2022/03/12 00:57:11;;;;;;;11.63;7.50;;;;;;;;;;4995631;28;20443;-76
2022/03/12 00:59:37;;;;;;;11.47;6.60;;;;;;;;;;4996590;28;20479;-77
2022/03/12 01:02:03;;;;;;;11.90;6.90;;;;;;;;;;4996212;28;20459;-77
2022/03/12 01:04:30;;;;;;;10.47;6.50;;;;;;;;;;4995884;28;20404;-75
2022/03/12 01:06:56;;;;;;;9.90;6.47;;;;;;;;;;4994350;28;20400;-76
2022/03/12 01:09:22;;;;;;;9.37;6.30;;;;;;;;;;4995492;28;20455;-76
2022/03/12 01:11:48;;;;;;;10.50;7.40;;;;;;;;;;4995277;28;20405;-77
2022/03/12 01:14:15;;;;;;;10.47;7.27;;;;;;;;;;4995170;28;20407;-76
2022/03/12 01:16:42;;;;;;;12.33;7.77;;;;;;;;;;4993869;28;20434;-76
2022/03/12 01:19:08;;;;;;;11.90;8.30;;;;;;;;;;4995432;28;20743;-77
2022/03/12 01:21:34;;;;;;;12.30;8.80;;;;;;;;;;4994990;28;20919;-75
2022/03/12 01:24:00;;;;;;;14.40;6.83;;;;;;;;;;4995142;28;20401;-76
2022/03/12 01:26:26;;;;;;;10.73;6.90;;;;;;;;;;4994839;28;20463;-76
2022/03/12 01:28:53;;;;;;;10.50;6.40;;;;;;;;;;4995467;28;20400;-77
2022/03/12 01:31:19;;;;;;;8.17;6.33;;;;;;;;;;5002558;28;20416;-77
2022/03/12 01:33:45;;;;;;;10.33;6.93;;;;;;;;;;4994910;28;20448;-77
2022/03/12 01:36:11;;;;;;;10.40;7.00;;;;;;;;;;4993483;28;20448;-76
2022/03/12 01:38:48;;;;;;;8.87;6.43;;;;;;;;;;4994474;28;20423;-76
2022/03/12 01:41:16;;;;;;;9.00;5.83;;;;;;;;;;4994917;28;20525;-76
2022/03/12 01:43:43;;;;;;;10.07;6.20;;;;;;;;;;4994567;28;20455;-77
2022/03/12 01:46:10;;;;;;;8.80;5.93;;;;;;;;;;4993099;28;20436;-76
2022/03/12 01:48:37;;;;;;;9.13;6.30;;;;;;;;;;4994358;28;20408;-76
2022/03/12 01:51:03;;;;;;;10.13;5.87;;;;;;;;;;4994480;28;20802;-76
2022/03/12 01:53:29;;;;;;;8.90;6.20;;;;;;;;;;4995039;28;20404;-77
2022/03/12 01:55:56;;;;;;;11.23;7.27;;;;;;;;;;4993065;28;20472;-77
2022/03/12 01:58:24;;;;;;;10.20;6.00;;;;;;;;;;4994810;28;20400;-77
2022/03/12 02:00:51;;;;;;;9.60;6.40;;;;;;;;;;4994597;28;20833;-75
2022/03/12 02:03:23;;;;;;;11.10;6.83;;;;;;;;;;4994198;28;20412;-77
2022/03/12 02:05:50;;;;;;;11.33;6.43;;;;;;;;;;4992797;28;20986;-77
2022/03/12 02:08:16;;;;;;;9.57;6.33;;;;;;;;;;4992936;28;20412;-76
2022/03/12 02:10:43;;;;;;;11.57;6.57;;;;;;;;;;4994376;28;20412;-76
2022/03/12 02:13:10;;;;;;;9.10;6.43;;;;;;;;;;4994008;28;20419;-76
2022/03/12 02:15:36;;;;;;;11.57;7.07;;;;;;;;;;4992739;28;20436;-76
2022/03/12 02:18:02;;;;;;;10.80;6.50;;;;;;;;;;4994623;28;20946;-75
2022/03/12 02:20:28;;;;;;;9.70;6.93;;;;;;;;;;4994169;28;20448;-76
2022/03/12 02:22:55;;;;;;;11.70;6.87;;;;;;;;;;4993997;28;20495;-76
2022/03/12 02:25:31;;;;;;;8.90;5.80;;;;;;;;;;4994241;28;20424;-75
2022/03/12 02:27:59;;;;;;;11.83;7.33;;;;;;;;;;4994375;28;20471;-76
2022/03/12 02:30:32;;;;;;;10.40;7.03;;;;;;;;;;4994168;28;20408;-76
2022/03/12 02:33:00;;;;;;;9.10;6.60;;;;;;;;;;4994318;28;20393;-76
2022/03/12 02:35:29;;;;;;;8.33;5.77;;;;;;;;;;4993811;28;20519;-76
2022/03/12 02:37:56;;;;;;;8.40;6.77;;;;;;;;;;4994124;28;20412;-77
2022/03/12 02:40:22;;;;;;;10.70;6.73;;;;;;;;;;4993953;28;20451;-76
2022/03/12 02:42:50;;;;;;;8.37;5.47;;;;;;;;;;4997767;28;20431;-76
2022/03/12 02:45:16;;;;;;;10.37;7.27;;;;;;;;;;5004673;28;20432;-76
2022/03/12 02:47:43;;;;;;;13.23;6.47;;;;;;;;;;4993919;28;20431;-76
2022/03/12 02:50:11;;;;;;;11.27;7.03;;;;;;;;;;4992458;28;20411;-76
2022/03/12 02:52:39;;;;;;;11.40;6.60;;;;;;;;;;4997508;28;20408;-76
2022/03/12 02:55:06;;;;;;;8.47;6.30;;;;;;;;;;4998108;28;20792;-76
2022/03/12 02:57:32;;;;;;;8.57;7.10;;;;;;;;;;4996514;28;20412;-76
2022/03/12 03:00:08;;;;;;;10.43;6.47;;;;;;;;;;4997543;28;20543;-76
2022/03/12 03:02:41;;;;;;;8.73;6.10;;;;;;;;;;4997723;28;20873;-76
2022/03/12 03:05:41;;;;;;;9.40;6.10;;;;;;;;;;4997784;28;20424;-75
2022/03/12 03:08:09;;;;;;;9.17;6.60;;;;;;;;;;4997712;28;20377;-76
2022/03/12 03:10:39;;;;;;;14.50;7.60;;;;;;;;;;4997639;28;20412;-76
2022/03/12 03:13:17;;;;;;;14.70;7.43;;;;;;;;;;4997478;28;20420;-76
2022/03/12 03:15:46;;;;;;;12.13;6.87;;;;;;;;;;4997816;28;20430;-76
2022/03/12 03:18:13;;;;;;;8.10;6.60;;;;;;;;;;4996329;28;20416;-76
2022/03/12 03:20:39;;;;;;;10.93;7.33;;;;;;;;;;4997365;28;20523;-76
2022/03/12 03:23:07;;;;;;;12.07;7.37;;;;;;;;;;4997474;28;20404;-76
2022/03/12 03:25:34;;;;;;;10.20;7.63;;;;;;;;;;4997170;28;20447;-77
2022/03/12 03:28:00;;;;;;;9.20;6.43;;;;;;;;;;4997600;28;20435;-77
2022/03/12 03:30:26;;;;;;;11.50;7.40;;;;;;;;;;4997217;28;20399;-77
2022/03/12 03:32:52;;;;;;;10.93;6.93;;;;;;;;;;4997398;28;20411;-77
2022/03/12 03:35:18;;;;;;;14.73;7.20;;;;;;;;;;4996830;28;20442;-77
2022/03/12 03:37:44;;;;;;;10.80;6.43;;;;;;;;;;4997507;28;20415;-77
2022/03/12 03:40:11;;;;;;;12.23;6.77;;;;;;;;;;4997145;28;20451;-77
2022/03/12 03:42:37;;;;;;;11.57;6.60;;;;;;;;;;4995843;28;20986;-77
2022/03/12 03:45:03;;;;;;;11.07;6.70;;;;;;;;;;4995424;28;20523;-77
2022/03/12 03:47:29;;;;;;;11.20;6.63;;;;;;;;;;4997213;28;20915;-77
2022/03/12 03:49:55;;;;;;;10.43;7.33;;;;;;;;;;4995646;28;20416;-77
2022/03/12 03:52:21;;;;;;;10.63;6.60;;;;;;;;;;4996779;28;20412;-77
2022/03/12 03:54:47;;;;;;;15.10;8.77;;;;;;;;;;4996598;28;20428;-77
2022/03/12 03:57:15;;;;;;;13.33;7.30;;;;;;;;;;4996858;28;20415;-77
2022/03/12 03:59:41;;;;;;;13.03;7.47;;;;;;;;;;4996600;28;20456;-77
2022/03/12 04:02:07;;;;;;;15.47;8.03;;;;;;;;;;4996362;28;20409;-77
2022/03/12 04:04:35;;;;;;;13.20;7.00;;;;;;;;;;4996556;28;20408;-77
2022/03/12 04:07:02;;;;;;;16.33;7.77;;;;;;;;;;4996598;28;20411;-77
2022/03/12 04:09:29;;;;;;;11.13;7.13;;;;;;;;;;4996659;28;20458;-77
2022/03/12 04:11:55;;;;;;;9.07;6.50;;;;;;;;;;4996397;28;20920;-76
2022/03/12 04:14:21;;;;;;;10.60;6.70;;;;;;;;;;4996309;28;20408;-77
2022/03/12 04:16:47;;;;;;;10.23;6.77;;;;;;;;;;4996293;28;20428;-77
2022/03/12 04:19:14;;;;;;;8.83;6.30;;;;;;;;;;4994954;28;20408;-76
2022/03/12 04:21:40;;;;;;;7.77;5.90;;;;;;;;;;5012438;28;20427;-76
2022/03/12 04:24:07;;;;;;;9.93;7.37;;;;;;;;;;4996502;28;20546;-76
2022/03/12 04:26:35;;;;;;;10.70;6.97;;;;;;;;;;4996316;28;20456;-76
2022/03/12 04:29:05;;;;;;;11.03;7.07;;;;;;;;;;4996118;28;20408;-76
2022/03/12 04:31:31;;;;;;;9.60;6.80;;;;;;;;;;4996456;28;20427;-78
2022/03/12 04:33:57;;;;;;;9.20;6.37;;;;;;;;;;4994864;28;20421;-76
2022/03/12 04:36:25;;;;;;;10.50;7.33;;;;;;;;;;4995648;28;20451;-76
2022/03/12 04:38:51;;;;;;;10.67;8.03;;;;;;;;;;4994530;28;20454;-76
2022/03/12 04:41:19;;;;;;;12.70;7.13;;;;;;;;;;4995750;28;20978;-76
2022/03/12 04:43:45;;;;;;;11.50;7.63;;;;;;;;;;4995756;28;20401;-76
2022/03/12 04:46:12;;;;;;;12.60;7.50;;;;;;;;;;4995828;28;20514;-76
2022/03/12 04:48:39;;;;;;;9.60;6.13;;;;;;;;;;4994532;28;20499;-76
2022/03/12 04:51:05;;;;;;;11.53;7.27;;;;;;;;;;4995692;28;20416;-76
2022/03/12 04:53:31;;;;;;;18.43;6.63;;;;;;;;;;4996104;28;20915;-76
2022/03/12 04:55:58;;;;;;;11.40;7.00;;;;;;;;;;4995524;28;20454;-75
2022/03/12 04:58:24;;;;;;;9.67;6.43;;;;;;;;;;5002861;28;20895;-76
2022/03/12 05:00:50;;;;;;;12.87;7.10;;;;;;;;;;5015146;28;20447;-76
2022/03/12 05:03:21;;;;;;;8.17;6.83;;;;;;;;;;5015072;28;20403;-75
2022/03/12 05:05:48;;;;;;;13.63;6.80;;;;;;;;;;5015002;28;20434;-75
2022/03/12 05:08:28;;;;;;;9.40;6.90;;;;;;;;;;5013857;28;20485;-75
2022/03/12 05:10:55;;;;;;;9.70;6.97;;;;;;;;;;5014776;28;20433;-76
2022/03/12 05:13:27;;;;;;;10.43;7.37;;;;;;;;;;5014091;28;20407;-76
2022/03/12 05:15:58;;;;;;;13.20;7.70;;;;;;;;;;5014762;28;20477;-75
2022/03/12 05:18:26;;;;;;;9.30;7.00;;;;;;;;;;5013406;28;20408;-75
2022/03/12 05:20:53;;;;;;;11.27;7.67;;;;;;;;;;5014821;28;20493;-76
2022/03/12 05:23:20;;;;;;;14.20;7.77;;;;;;;;;;5014595;28;20823;-76
2022/03/12 05:25:47;;;;;;;10.03;7.10;;;;;;;;;;5014608;28;20423;-75
2022/03/12 05:28:17;;;;;;;11.30;6.50;;;;;;;;;;5014592;28;20431;-77
2022/03/12 05:30:46;;;;;;;11.00;7.13;;;;;;;;;;5014626;28;20399;-77
2022/03/12 05:33:13;;;;;;;11.17;7.43;;;;;;;;;;5014239;28;21004;-77
2022/03/12 05:35:41;;;;;;;14.27;7.50;;;;;;;;;;5014414;28;20549;-76
2022/03/12 05:38:07;;;;;;;12.93;7.67;;;;;;;;;;5035917;23;20502;-77
2022/03/12 05:40:38;;;;;;;8.97;6.93;;;;;;;;;;5035909;28;20554;-77
2022/03/12 05:43:06;;;;;;;15.13;7.80;;;;;;;;;;5036226;28;20379;-78
2022/03/12 05:45:32;;;;;;;10.00;7.00;;;;;;;;;;5035963;28;20441;-77
2022/03/12 05:47:58;;;;;;;10.00;6.80;;;;;;;;;;5051424;28;20737;-77
2022/03/12 05:50:25;;;;;;;12.80;7.17;;;;;;;;;;5036511;28;20496;-78
2022/03/12 05:52:52;;;;;;;14.77;7.00;;;;;;;;;;5035931;28;20537;-78
2022/03/12 05:55:19;;;;;;;9.40;6.70;;;;;;;;;;5035435;28;20406;-77
2022/03/12 05:57:45;;;;;;;10.60;7.40;;;;;;;;;;5035696;28;20423;-77
2022/03/12 06:00:12;;;;;;;11.23;6.90;;;;;;;;;;5036196;28;20454;-79
2022/03/12 06:02:43;;;;;;;10.67;7.40;;;;;;;;;;5036135;28;20434;-77
2022/03/12 06:05:12;;;;;;;12.90;8.80;;;;;;;;;;5035301;28;20417;-77
2022/03/12 06:07:41;;;;;;;11.50;7.77;;;;;;;;;;5035912;28;20434;-78
2022/03/12 06:10:07;;;;;;;12.00;8.23;;;;;;;;;;5036268;28;20429;-77
2022/03/12 06:12:34;;;;;;;9.53;8.10;;;;;;;;;;5035880;28;20460;-78
2022/03/12 06:15:00;;;;;;;12.43;7.20;;;;;;;;;;5036407;28;20411;-78
2022/03/12 06:17:27;;;;;;;12.80;7.97;;;;;;;;;;5036052;28;20493;-78
2022/03/12 06:19:53;;;;;;;9.10;7.00;;;;;;;;;;5035703;28;20446;-78
2022/03/12 06:22:19;;;;;;;11.73;7.00;;;;;;;;;;5035452;28;20410;-77
2022/03/12 06:24:49;;;;;;;11.60;7.20;;;;;;;;;;5035162;28;20434;-78
2022/03/12 06:27:19;;;;;;;12.60;8.10;;;;;;;;;;5034953;28;20410;-77
2022/03/12 06:29:45;;;;;;;11.43;7.70;;;;;;;;;;5035320;28;20878;-78
2022/03/12 06:32:13;;;;;;;16.13;9.00;;;;;;;;;;5035074;28;20407;-78
2022/03/12 06:34:40;;;;;;;12.73;8.00;;;;;;;;;;5035873;28;20453;-77
2022/03/12 06:37:08;;;;;;;12.17;6.83;;;;;;;;;;5035715;28;20402;-78
2022/03/12 06:39:34;;;;;;;13.53;7.97;;;;;;;;;;5050667;28;20491;-78
2022/03/12 06:42:01;;;;;;;13.23;8.17;;;;;;;;;;5050719;28;20415;-77
2022/03/12 06:44:31;;;;;;;12.03;8.47;;;;;;;;;;5035356;28;20403;-77
2022/03/12 06:46:57;;;;;;;13.87;8.70;;;;;;;;;;5035479;28;20387;-78
2022/03/12 06:49:23;;;;;;;14.50;8.43;;;;;;;;;;5035625;28;20418;-77
2022/03/12 06:51:49;;;;;;;11.67;8.00;;;;;;;;;;5035071;28;20394;-78
2022/03/12 06:54:15;;;;;;;12.80;8.80;;;;;;;;;;5034628;28;20394;-78
2022/03/12 06:56:42;;;;;;;13.23;10.33;;;;;;;;;;5035163;28;20452;-77
2022/03/12 06:59:08;;;;;;;13.30;9.10;;;;;;;;;;5035567;28;20437;-78
2022/03/12 07:01:34;;;;;;;11.57;7.93;;;;;;;;;;5049873;28;20500;-77
2022/03/12 07:04:00;;;;;;;11.63;8.60;;;;;;;;;;5035069;28;20448;-77
2022/03/12 07:06:26;;;;;;;12.70;8.63;;;;;;;;;;5035042;28;20961;-78
2022/03/12 07:08:52;;;;;;;12.70;8.37;;;;;;;;;;5035580;28;20415;-78
2022/03/12 07:11:20;;;;;;;12.20;8.33;;;;;;;;;;5050417;28;20529;-78
2022/03/12 07:13:46;;;;;;;11.37;7.63;;;;;;;;;;5035248;28;20410;-78
2022/03/12 07:16:12;;;;;;;17.03;8.93;;;;;;;;;;5035198;28;20470;-78
2022/03/12 07:18:38;;;;;;;13.17;8.03;;;;;;;;;;5036191;28;20794;-77
2022/03/12 07:21:06;;;;;;;12.93;8.87;;;;;;;;;;5050239;28;20460;-77
2022/03/12 07:23:32;;;;;;;15.33;9.67;;;;;;;;;;5034758;28;20437;-78
2022/03/12 07:25:58;;;;;;;13.37;8.40;;;;;;;;;;5050844;28;20473;-78
2022/03/12 07:28:24;;;;;;;13.67;9.33;;;;;;;;;;5051516;28;20521;-77
2022/03/12 07:30:50;;;;;;;14.20;9.27;;;;;;;;;;5035622;28;20472;-78
2022/03/12 07:33:17;;;;;;;13.93;8.93;;;;;;;;;;5037506;28;20406;-78
2022/03/12 07:35:43;;;;;;;10.93;8.40;;;;;;;;;;5036172;28;20417;-77
2022/03/12 07:38:09;;;;;;;14.70;10.47;;;;;;;;;;5037439;28;20433;-78
2022/03/12 07:40:35;;;;;;;12.90;9.70;;;;;;;;;;5038591;28;20457;-77
2022/03/12 07:43:01;;;;;;;17.50;9.30;;;;;;;;;;5038849;28;20429;-78
2022/03/12 07:45:27;;;;;;;18.30;9.40;;;;;;;;;;5038111;28;20468;-78
2022/03/12 07:47:54;;;;;;;13.70;8.90;;;;;;;;;;5053012;28;20516;-77
2022/03/12 07:50:21;;;;;;;12.70;8.53;;;;;;;;;;5038963;28;20418;-78
2022/03/12 07:52:47;;;;;;;15.50;10.30;;;;;;;;;;5038479;28;20472;-78
2022/03/12 07:55:16;;;;;;;13.10;8.70;;;;;;;;;;5038040;28;20426;-78
2022/03/12 07:57:42;;;;;;;13.33;9.97;;;;;;;;;;5038356;28;20426;-78
2022/03/12 08:00:10;;;;;;;13.93;8.33;;;;;;;;;;5053460;28;20477;-78
2022/03/12 08:02:36;;;;;;;14.10;9.30;;;;;;;;;;5053343;28;20415;-78
2022/03/12 08:05:02;;;;;;;15.67;9.73;;;;;;;;;;5053780;28;20491;-78
2022/03/12 08:07:29;;;;;;;15.80;9.77;;;;;;;;;;5037715;28;20753;-78
2022/03/12 08:09:59;;;;;;;18.83;10.73;;;;;;;;;;5037732;28;20406;-78
2022/03/12 08:12:32;;;;;;;16.00;9.50;;;;;;;;;;5038091;28;20425;-78
2022/03/12 08:14:59;;;;;;;17.70;10.27;;;;;;;;;;5038656;28;20733;-78
2022/03/12 08:17:25;;;;;;;16.23;10.00;;;;;;;;;;5038014;28;20500;-78
2022/03/12 08:19:52;;;;;;;16.83;10.97;;;;;;;;;;5039344;28;20492;-78
2022/03/12 08:22:18;;;;;;;17.00;10.60;;;;;;;;;;5038189;28;20937;-78
2022/03/12 08:24:45;;;;;;;16.73;9.93;;;;;;;;;;5038163;28;20418;-78
2022/03/12 08:27:14;;;;;;;18.67;10.80;;;;;;;;;;5037843;28;20497;-78
2022/03/12 08:29:41;;;;;;;15.20;11.13;;;;;;;;;;5039047;28;20406;-78
2022/03/12 08:32:08;;;;;;;13.90;10.43;;;;;;;;;;5037442;28;20430;-78
2022/03/12 08:34:35;;;;;;;18.40;11.77;;;;;;;;;;5038850;28;20437;-78
2022/03/12 08:37:01;;;;;;;16.17;10.60;;;;;;;;;;5039958;28;20429;-78
2022/03/12 08:39:27;;;;;;;15.77;12.13;;;;;;;;;;5040560;28;20462;-77
2022/03/12 08:41:54;;;;;;;18.40;11.70;;;;;;;;;;5037700;28;20484;-77
2022/03/12 08:44:21;;;;;;;16.03;10.30;;;;;;;;;;5035611;28;20407;-77
2022/03/12 08:46:47;;;;;;;21.57;12.30;;;;;;;;;;5034732;28;20411;-77
2022/03/12 08:49:14;;;;;;;15.37;10.03;;;;;;;;;;5035954;28;20502;-77
2022/03/12 08:51:41;;;;;;;19.10;13.20;;;;;;;;;;5037486;28;20747;-78
2022/03/12 08:54:08;;;;;;;17.80;12.10;;;;;;;;;;5037800;28;20493;-77
2022/03/12 08:56:34;;;;;;;17.30;11.60;;;;;;;;;;5038254;28;20844;-77
2022/03/12 08:59:00;;;;;;;19.43;12.07;;;;;;;;;;5037215;28;20537;-77
2022/03/12 09:01:26;;;;;;;18.50;12.53;;;;;;;;;;5027857;28;20526;-77
2022/03/12 09:03:52;;;;;;;17.87;11.20;;;;;;;;;;5033979;28;20792;-78
2022/03/12 09:06:19;;;;;;;15.40;10.90;;;;;;;;;;5033516;28;20900;-77
2022/03/12 09:08:45;;;;;;;16.53;11.50;;;;;;;;;;5017709;28;20923;-78
2022/03/12 09:11:15;;;;;;;20.83;12.57;;;;;;;;;;5033616;28;20443;-78
2022/03/12 09:13:41;;;;;;;15.03;11.50;;;;;;;;;;5018447;28;20498;-78
2022/03/12 09:16:07;;;;;;;22.70;13.07;;;;;;;;;;5017532;28;20426;-78
2022/03/12 09:18:34;;;;;;;19.97;11.67;;;;;;;;;;5017224;28;20502;-78
2022/03/12 09:21:00;;;;;;;17.23;12.03;;;;;;;;;;5014025;28;20465;-78
2022/03/12 09:23:26;;;;;;;27.37;13.70;;;;;;;;;;5028457;28;20419;-78
2022/03/12 09:25:52;;;;;;;22.93;11.93;;;;;;;;;;5018042;28;20465;-78
2022/03/12 09:28:19;;;;;;;21.10;12.50;;;;;;;;;;5016435;28;20438;-78
2022/03/12 09:30:50;;;;;;;19.33;13.60;;;;;;;;;;5019711;28;20419;-78
2022/03/12 09:33:17;;;;;;;19.73;13.17;;;;;;;;;;5016159;28;20494;-78
2022/03/12 09:35:43;;;;;;;19.60;13.33;;;;;;;;;;5015470;28;20423;-78
2022/03/12 09:38:10;;;;;;;22.60;13.63;;;;;;;;;;5015099;28;20463;-77
2022/03/12 09:40:36;;;;;;;21.83;13.00;;;;;;;;;;5016476;28;20865;-78
2022/03/12 09:43:02;;;;;;;22.67;13.63;;;;;;;;;;5016800;28;20415;-78
2022/03/12 09:45:28;;;;;;;17.57;11.90;;;;;;;;;;5015757;28;20430;-78
2022/03/12 09:47:55;;;;;;;21.07;12.70;;;;;;;;;;5016648;28;20434;-78
2022/03/12 09:50:21;;;;;;;19.20;12.10;;;;;;;;;;5015029;28;20477;-78
2022/03/12 09:52:48;;;;;;;23.20;13.47;;;;;;;;;;5016347;28;20450;-78
2022/03/12 09:55:15;;;;;;;25.67;15.10;;;;;;;;;;5015285;28;20412;-78
2022/03/12 09:57:41;;;;;;;22.27;11.73;;;;;;;;;;5016141;28;20459;-78
2022/03/12 10:00:08;;;;;;;18.53;12.50;;;;;;;;;;5014265;28;20955;-78
2022/03/12 10:02:34;;;;;;;21.60;13.60;;;;;;;;;;5014154;28;20958;-77
2022/03/12 10:05:00;;;;;;;17.47;12.30;;;;;;;;;;5015645;28;20911;-78
2022/03/12 10:07:26;;;;;;;24.87;13.87;;;;;;;;;;5014616;28;20947;-77
2022/03/12 10:09:52;;;;;;;17.30;12.60;;;;;;;;;;5014346;28;20423;-78
2022/03/12 10:12:22;;;;;;;19.23;12.33;;;;;;;;;;5015262;28;20787;-78
2022/03/12 10:14:49;;;;;;;17.80;12.80;;;;;;;;;;5004513;28;20416;-78
2022/03/12 10:17:17;;;;;;;21.27;13.30;;;;;;;;;;5004781;28;20420;-78
2022/03/12 10:19:44;;;;;;;18.90;12.13;;;;;;;;;;5010340;28;20849;-78
2022/03/12 10:22:10;;;;;;;20.83;12.60;;;;;;;;;;5015365;28;20424;-78
2022/03/12 10:24:37;;;;;;;17.90;12.60;;;;;;;;;;5014784;28;20479;-77
2022/03/12 10:27:06;;;;;;;20.97;12.83;;;;;;;;;;5015304;28;20408;-76
2022/03/12 10:29:33;;;;;;;18.33;11.90;;;;;;;;;;5013885;28;20423;-77
2022/03/12 10:31:59;;;;;;;17.00;11.13;;;;;;;;;;5017508;28;20425;-78
2022/03/12 10:34:26;;;;;;;20.43;13.20;;;;;;;;;;5016910;28;20419;-78
2022/03/12 10:36:57;;;;;;;15.30;10.77;;;;;;;;;;5017316;28;20414;-78
2022/03/12 10:39:30;;;;;;;19.20;11.73;;;;;;;;;;5013900;28;20466;-76
2022/03/12 10:42:00;;;;;;;21.90;11.93;;;;;;;;;;5015779;28;20423;-77
2022/03/12 10:44:33;;;;;;;22.73;12.63;;;;;;;;;;5013594;28;20407;-77
2022/03/12 10:46:59;;;;;;;17.80;11.27;;;;;;;;;;5013214;28;20432;-78
2022/03/12 10:49:25;;;;;;;14.77;11.77;;;;;;;;;;5014451;28;20443;-77
2022/03/12 10:51:55;;;;;;;26.07;13.60;;;;;;;;;;5013717;28;20824;-77
2022/03/12 10:54:22;;;;;;;21.30;12.43;;;;;;;;;;5013181;28;20437;-77
2022/03/12 10:56:54;;;;;;;13.90;11.53;;;;;;;;;;5013014;28;20887;-77
2022/03/12 10:59:25;;;;;;;16.17;10.47;;;;;;;;;;5012882;28;20485;-78
2022/03/12 11:01:52;;;;;;;17.10;12.00;;;;;;;;;;5012229;28;20520;-78
2022/03/12 11:04:19;;;;;;;19.23;11.70;;;;;;;;;;5013863;28;20461;-77
2022/03/12 11:06:45;;;;;;;17.27;11.77;;;;;;;;;;5013530;28;20841;-77
2022/03/12 11:09:15;;;;;;;17.83;11.53;;;;;;;;;;5011847;28;20431;-78
2022/03/12 11:11:45;;;;;;;23.37;11.77;;;;;;;;;;5012837;28;20782;-77
2022/03/12 11:14:17;;;;;;;18.13;12.40;;;;;;;;;;5015358;28;20809;-77
2022/03/12 11:16:46;;;;;;;15.60;10.77;;;;;;;;;;5015877;28;20891;-77
2022/03/12 11:19:12;;;;;;;18.17;12.20;;;;;;;;;;5017054;28;20935;-77
2022/03/12 11:21:42;;;;;;;18.03;12.07;;;;;;;;;;5016411;28;20447;-77
2022/03/12 11:24:09;;;;;;;21.43;13.80;;;;;;;;;;5015705;28;20477;-77
2022/03/12 11:27:05;;;;;;;18.27;11.47;;;;;;;;;;5017550;28;20430;-77
2022/03/12 11:29:32;;;;;;;18.63;13.70;;;;;;;;;;5011725;28;20403;-77
2022/03/12 11:31:59;;;;;;;18.43;12.10;;;;;;;;;;5011417;28;20419;-77
2022/03/12 11:34:25;;;;;;;19.03;12.50;;;;;;;;;;5004526;28;20460;-78
2022/03/12 11:36:57;;;;;;;19.73;12.93;;;;;;;;;;5024897;28;20434;-77
2022/03/12 11:39:32;;;;;;;17.13;12.50;;;;;;;;;;5049753;23;20592;-74
2022/03/12 11:42:02;;;;;;;18.87;12.80;;;;;;;;;;5034774;28;20487;-76
2022/03/12 11:44:32;;;;;;;16.67;12.43;;;;;;;;;;5035952;28;20425;-77
2022/03/12 11:46:58;;;;;;;20.70;13.17;;;;;;;;;;5035234;28;20509;-76
2022/03/12 11:49:25;;;;;;;23.57;13.13;;;;;;;;;;5035684;28;20458;-75
2022/03/12 11:51:52;;;;;;;16.27;11.50;;;;;;;;;;5035650;28;20949;-75
2022/03/12 11:54:18;;;;;;;17.17;12.77;;;;;;;;;;5035893;28;20414;-75
2022/03/12 11:56:44;;;;;;;21.30;12.40;;;;;;;;;;5035127;28;20410;-75
2022/03/12 11:59:10;;;;;;;23.53;14.50;;;;;;;;;;5018165;28;20427;-75
2022/03/12 12:01:37;;;;;;;19.43;13.23;;;;;;;;;;5035538;28;20450;-75
2022/03/12 12:04:04;;;;;;;23.63;14.53;;;;;;;;;;5035708;28;20418;-75
2022/03/12 12:06:30;;;;;;;20.40;13.43;;;;;;;;;;5035936;28;20874;-75
2022/03/12 12:08:57;;;;;;;17.27;12.53;;;;;;;;;;5037790;28;20437;-76
2022/03/12 12:11:23;;;;;;;17.87;12.50;;;;;;;;;;5035731;28;20510;-75
2022/03/12 12:13:49;;;;;;;19.33;12.67;;;;;;;;;;5035114;28;20635;-75
2022/03/12 12:16:18;;;;;;;21.87;13.77;;;;;;;;;;5035240;28;20430;-75
2022/03/12 12:18:45;;;;;;;20.33;13.60;;;;;;;;;;5034049;28;20430;-74
2022/03/12 12:21:16;;;;;;;19.37;13.70;;;;;;;;;;5033217;28;20461;-75
2022/03/12 12:23:42;;;;;;;21.53;14.20;;;;;;;;;;5035008;28;20453;-75
2022/03/12 12:26:09;;;;;;;19.80;12.57;;;;;;;;;;5035666;28;20419;-76
2022/03/12 12:28:46;;;;;;;18.73;13.43;;;;;;;;;;5037084;28;20448;-76
2022/03/12 12:31:19;;;;;;;21.20;14.70;;;;;;;;;;5036226;28;20501;-76
2022/03/12 12:33:45;;;;;;;21.00;13.27;;;;;;;;;;5036246;28;20395;-76
2022/03/12 12:36:18;;;;;;;23.13;15.50;;;;;;;;;;5035962;28;20809;-76
2022/03/12 12:39:12;;;;;;;20.33;13.93;;;;;;;;;;5035658;28;20901;-76
2022/03/12 12:41:52;;;;;;;24.37;15.20;;;;;;;;;;5033713;28;20458;-75
2022/03/12 12:44:33;;;;;;;22.37;13.60;;;;;;;;;;5035942;28;20458;-75
2022/03/12 12:47:01;;;;;;;21.03;13.63;;;;;;;;;;5035662;28;20437;-76
2022/03/12 12:49:35;;;;;;;20.37;13.57;;;;;;;;;;5035524;28;20498;-76
2022/03/12 12:52:02;;;;;;;21.47;15.30;;;;;;;;;;5035898;28;20394;-75
2022/03/12 12:54:46;;;;;;;21.23;14.13;;;;;;;;;;5035001;28;20493;-75
2022/03/12 12:57:13;;;;;;;16.67;12.37;;;;;;;;;;5035629;28;20391;-76
2022/03/12 12:59:41;;;;;;;23.07;14.47;;;;;;;;;;5035293;28;20419;-76
2022/03/12 13:02:07;;;;;;;23.03;13.47;;;;;;;;;;5035262;28;20464;-75
2022/03/12 13:04:50;;;;;;;20.60;13.73;;;;;;;;;;5035110;28;20469;-76
2022/03/12 13:07:21;;;;;;;22.50;14.47;;;;;;;;;;5034814;28;20411;-76
2022/03/12 13:09:55;;;;;;;25.38;15.18;;;;;;;;;;5034093;28;20413;-75
2022/03/12 13:12:37;;;;;;;24.70;16.20;;;;;;;;;;5033230;28;20172;-75
2022/03/12 13:15:04;;;;;;;20.50;14.87;;;;;;;;;;5036049;28;20374;-75
2022/03/12 13:17:33;;;;;;;21.63;12.83;;;;;;;;;;5033548;28;20501;-75
2022/03/12 13:19:59;;;;;;;23.87;15.27;;;;;;;;;;5034744;28;20537;-75
2022/03/12 13:22:36;;;;;;;23.47;15.30;;;;;;;;;;5049921;28;20438;-75
2022/03/12 13:25:05;;;;;;;26.40;16.10;;;;;;;;;;5037611;28;20406;-75
2022/03/12 13:27:32;;;;;;;23.27;14.17;;;;;;;;;;5034967;28;20788;-75
2022/03/12 13:30:18;;;;;;;24.97;16.63;;;;;;;;;;5033585;28;20826;-77
2022/03/12 13:32:46;;;;;;;20.50;14.50;;;;;;;;;;5026070;28;20418;-76
2022/03/12 13:35:14;;;;;;;21.30;14.80;;;;;;;;;;5029409;28;20845;-75
2022/03/12 13:37:40;;;;;;;21.37;13.70;;;;;;;;;;5030028;28;20448;-75
2022/03/12 13:40:11;;;;;;;25.97;16.53;;;;;;;;;;5032403;28;20437;-75
2022/03/12 13:42:38;;;;;;;23.83;15.83;;;;;;;;;;5034651;28;20898;-75
2022/03/12 13:45:05;;;;;;;20.77;14.07;;;;;;;;;;5032145;28;20418;-75
2022/03/12 13:47:31;;;;;;;24.33;15.90;;;;;;;;;;5034762;28;20414;-74
2022/03/12 13:49:58;;;;;;;23.97;15.10;;;;;;;;;;5034337;28;20418;-75
2022/03/12 13:52:24;;;;;;;23.60;15.70;;;;;;;;;;5032957;28;21272;-76
2022/03/12 13:55:00;;;;;;;27.23;15.27;;;;;;;;;;5035108;28;20429;-75
2022/03/12 13:57:32;;;;;;;37.93;15.73;;;;;;;;;;5033239;28;20463;-75
2022/03/12 14:00:08;;;;;;;21.23;14.90;;;;;;;;;;5033979;28;20826;-75
2022/03/12 14:02:35;;;;;;;20.50;14.17;;;;;;;;;;5033716;28;20747;-75
2022/03/12 14:05:01;;;;;;;23.30;13.67;;;;;;;;;;5032061;28;20407;-74
2022/03/12 14:07:27;;;;;;;19.17;13.30;;;;;;;;;;5033106;28;20476;-74
2022/03/12 14:09:54;;;;;;;21.97;13.60;;;;;;;;;;5033266;28;20426;-74
2022/03/12 14:12:24;;;;;;;26.60;14.90;;;;;;;;;;5034247;28;20828;-75
2022/03/12 14:14:50;;;;;;;20.13;12.80;;;;;;;;;;5033561;28;20836;-75
2022/03/12 14:17:16;;;;;;;23.30;13.30;;;;;;;;;;5032139;28;20452;-74
2022/03/12 14:19:42;;;;;;;21.03;13.07;;;;;;;;;;5033579;28;20492;-74
2022/03/12 14:22:08;;;;;;;19.83;13.13;;;;;;;;;;5033539;28;20422;-74
2022/03/12 14:24:37;;;;;;;18.23;12.17;;;;;;;;;;5032840;28;20425;-75
2022/03/12 14:27:11;;;;;;;20.17;13.47;;;;;;;;;;5033645;28;20401;-75
2022/03/12 14:29:43;;;;;;;21.17;13.20;;;;;;;;;;5033293;28;20524;-74